sensor_id;sensor_type;location;lat;lon;timestamp;pressure;altitude;pressure_sealevel;temperature;humidity
33913;BME280;20200;52.084;5.224;2023-01-24T00:01:10;152029.0;;;12.95;41.14
33913;BME280;20200;52.084;5.224;2023-01-24T00:02:46;152026.0;;;12.94;41.09
33913;BME280;20200;52.084;5.224;2023-01-24T00:04:22;151936.0;;;12.58;41.63
33913;BME280;20200;52.084;5.224;2023-01-24T00:07:35;151920.0;;;12.52;41.32
33913;BME280;20200;52.084;5.224;2023-01-24T00:09:12;151826.0;;;12.14;42.38
33913;BME280;20200;52.084;5.224;2023-01-24T00:10:49;151902.0;;;12.45;41.96
33913;BME280;20200;52.084;5.224;2023-01-24T00:12:32;151867.0;;;12.31;42.19
33913;BME280;20200;52.084;5.224;2023-01-24T00:15:45;151987.0;;;12.78;41.45
33913;BME280;20200;52.084;5.224;2023-01-24T00:17:22;151855.0;;;12.26;42.28
33913;BME280;20200;52.084;5.224;2023-01-24T00:18:58;151814.0;;;12.1;42.52
33913;BME280;20200;52.084;5.224;2023-01-24T00:22:10;151930.0;;;12.56;42.03
33913;BME280;20200;52.084;5.224;2023-01-24T00:23:48;152007.0;;;12.87;41.62
33913;BME280;20200;52.084;5.224;2023-01-24T00:25:25;152034.0;;;12.97;41.21
33913;BME280;20200;52.084;5.224;2023-01-24T00:28:38;152029.0;;;12.95;41.15
33913;BME280;20200;52.084;5.224;2023-01-24T00:30:15;151961.0;;;12.68;41.04
33913;BME280;20200;52.084;5.224;2023-01-24T00:31:52;152014.0;;;12.89;41.31
33913;BME280;20200;52.084;5.224;2023-01-24T00:33:28;152090.0;;;13.2;40.64
33913;BME280;20200;52.084;5.224;2023-01-24T00:36:43;152042.0;;;13.01;40.85
33913;BME280;20200;52.084;5.224;2023-01-24T00:38:19;152024.0;;;12.93;41.22
33913;BME280;20200;52.084;5.224;2023-01-24T00:39:56;151978.0;;;12.75;41.6
33913;BME280;20200;52.084;5.224;2023-01-24T00:43:08;152052.0;;;13.04;41.02
33913;BME280;20200;52.084;5.224;2023-01-24T00:44:44;152083.0;;;13.17;40.92
33913;BME280;20200;52.084;5.224;2023-01-24T00:46:20;151962.0;;;12.68;41.48
33913;BME280;20200;52.084;5.224;2023-01-24T00:49:34;151973.0;;;12.73;41.05
33913;BME280;20200;52.084;5.224;2023-01-24T00:51:10;151935.0;;;12.58;41.7
33913;BME280;20200;52.084;5.224;2023-01-24T00:52:46;151829.0;;;12.16;42.35
33913;BME280;20200;52.084;5.224;2023-01-24T00:54:23;151978.0;;;12.75;41.32
33913;BME280;20200;52.084;5.224;2023-01-24T00:57:36;151945.0;;;12.62;41.59
33913;BME280;20200;52.084;5.224;2023-01-24T00:59:12;151937.0;;;12.59;41.6
33913;BME280;20200;52.084;5.224;2023-01-24T01:00:49;151942.0;;;12.61;41.56
33913;BME280;20200;52.084;5.224;2023-01-24T01:04:01;151867.0;;;12.31;41.71
33913;BME280;20200;52.084;5.224;2023-01-24T01:05:39;151963.0;;;12.69;41.27
33913;BME280;20200;52.084;5.224;2023-01-24T01:07:16;151923.0;;;12.53;41.72
33913;BME280;20200;52.084;5.224;2023-01-24T01:10:28;151908.0;;;12.47;42.22
33913;BME280;20200;52.084;5.224;2023-01-24T01:12:05;151885.0;;;12.38;42.04
33913;BME280;20200;52.084;5.224;2023-01-24T01:13:41;151939.0;;;12.6;41.62
33913;BME280;20200;52.084;5.224;2023-01-24T01:15:18;151742.0;;;11.81;42.51
33913;BME280;20200;52.084;5.224;2023-01-24T01:18:31;151758.0;;;11.87;42.89
33913;BME280;20200;52.084;5.224;2023-01-24T01:20:09;151841.0;;;12.2;42.57
33913;BME280;20200;52.084;5.224;2023-01-24T01:21:45;151913.0;;;12.49;41.69
33913;BME280;20200;52.084;5.224;2023-01-24T01:24:57;151892.0;;;12.41;42.5
33913;BME280;20200;52.084;5.224;2023-01-24T01:26:34;151754.0;;;11.86;43.22
33913;BME280;20200;52.084;5.224;2023-01-24T01:28:10;151850.0;;;12.24;42.46
33913;BME280;20200;52.084;5.224;2023-01-24T01:31:23;151837.0;;;12.19;42.29
33913;BME280;20200;52.084;5.224;2023-01-24T01:32:59;151743.0;;;11.81;43.0
33913;BME280;20200;52.084;5.224;2023-01-24T01:34:35;151788.0;;;11.99;42.78
33913;BME280;20200;52.084;5.224;2023-01-24T01:36:11;151844.0;;;12.22;42.38
33913;BME280;20200;52.084;5.224;2023-01-24T01:39:24;151688.0;;;11.6;43.48
33913;BME280;20200;52.084;5.224;2023-01-24T01:41:00;151747.0;;;11.83;42.78
33913;BME280;20200;52.084;5.224;2023-01-24T01:42:44;151955.0;;;12.66;41.45
33913;BME280;20200;52.084;5.224;2023-01-24T01:46:34;151958.0;;;12.67;41.67
33913;BME280;20200;52.084;5.224;2023-01-24T01:48:21;151804.0;;;12.06;42.15
33913;BME280;20200;52.084;5.224;2023-01-24T01:50:02;151969.0;;;12.71;41.76
33913;BME280;20200;52.084;5.224;2023-01-24T01:51:45;151967.0;;;12.71;41.84
33913;BME280;20200;52.084;5.224;2023-01-24T01:53:24;151860.0;;;12.28;42.21
33913;BME280;20200;52.084;5.224;2023-01-24T01:55:07;151961.0;;;12.68;41.32
33913;BME280;20200;52.084;5.224;2023-01-24T01:58:31;151909.0;;;12.47;41.84
33913;BME280;20200;52.084;5.224;2023-01-24T02:00:10;151947.0;;;12.63;41.28
33913;BME280;20200;52.084;5.224;2023-01-24T02:01:51;151854.0;;;12.26;42.35
33913;BME280;20200;52.084;5.224;2023-01-24T02:03:50;151845.0;;;12.22;42.03
33913;BME280;20200;52.084;5.224;2023-01-24T02:05:29;151877.0;;;12.35;42.06
33913;BME280;20200;52.084;5.224;2023-01-24T02:08:46;151846.0;;;12.22;41.89
33913;BME280;20200;52.084;5.224;2023-01-24T02:10:25;151873.0;;;12.33;41.97
33913;BME280;20200;52.084;5.224;2023-01-24T02:12:06;151877.0;;;12.35;41.93
33913;BME280;20200;52.084;5.224;2023-01-24T02:16:26;151886.0;;;12.38;41.86
33913;BME280;20200;52.084;5.224;2023-01-24T02:18:04;151843.0;;;12.21;42.16
33913;BME280;20200;52.084;5.224;2023-01-24T02:21:49;151973.0;;;12.73;41.22
33913;BME280;20200;52.084;5.224;2023-01-24T02:23:39;152088.0;;;13.19;40.32
33913;BME280;20200;52.084;5.224;2023-01-24T02:25:26;152058.0;;;13.07;40.42
33913;BME280;20200;52.084;5.224;2023-01-24T02:27:06;152088.0;;;13.19;40.31
33913;BME280;20200;52.084;5.224;2023-01-24T02:28:45;152070.0;;;13.12;40.42
33913;BME280;20200;52.084;5.224;2023-01-24T02:32:05;151964.0;;;12.69;41.7
33913;BME280;20200;52.084;5.224;2023-01-24T02:33:42;152060.0;;;13.08;40.76
33913;BME280;20200;52.084;5.224;2023-01-24T02:35:23;151895.0;;;12.42;41.57
33913;BME280;20200;52.084;5.224;2023-01-24T02:37:06;151833.0;;;12.17;41.87
33913;BME280;20200;52.084;5.224;2023-01-24T02:40:30;151847.0;;;12.23;41.83
33913;BME280;20200;52.084;5.224;2023-01-24T02:42:11;151771.0;;;11.93;42.59
33913;BME280;20200;52.084;5.224;2023-01-24T02:43:49;151821.0;;;12.13;41.81
33913;BME280;20200;52.084;5.224;2023-01-24T02:45:30;151895.0;;;12.42;41.39
33913;BME280;20200;52.084;5.224;2023-01-24T02:48:45;151923.0;;;12.53;41.04
33913;BME280;20200;52.084;5.224;2023-01-24T02:50:23;151883.0;;;12.37;41.71
33913;BME280;20200;52.084;5.224;2023-01-24T02:53:33;151959.0;;;12.67;41.28
33913;BME280;20200;52.084;5.224;2023-01-24T02:55:09;151900.0;;;12.44;41.35
33913;BME280;20200;52.084;5.224;2023-01-24T02:58:06;151779.0;;;11.96;42.3
33913;BME280;20200;52.084;5.224;2023-01-24T03:00:22;151942.0;;;12.61;41.28
33913;BME280;20200;52.084;5.224;2023-01-24T03:01:58;152017.0;;;12.91;40.44
33913;BME280;20200;52.084;5.224;2023-01-24T03:05:11;152055.0;;;13.06;40.24
33913;BME280;20200;52.084;5.224;2023-01-24T03:06:48;152077.0;;;13.15;40.19
33913;BME280;20200;52.084;5.224;2023-01-24T03:08:26;152037.0;;;12.98;40.6
33913;BME280;20200;52.084;5.224;2023-01-24T03:11:41;152012.0;;;12.89;40.53
33913;BME280;20200;52.084;5.224;2023-01-24T03:34:53;151724.0;;;11.74;43.22
33913;BME280;20200;52.084;5.224;2023-01-24T03:41:35;151905.0;;;12.46;41.73
33913;BME280;20200;52.084;5.224;2023-01-24T03:44:47;151969.0;;;12.72;41.27
33913;BME280;20200;52.084;5.224;2023-01-24T03:46:23;152050.0;;;13.04;40.75
33913;BME280;20200;52.084;5.224;2023-01-24T03:53:49;151939.0;;;12.6;41.42
33913;BME280;20200;52.084;5.224;2023-01-24T03:57:02;151893.0;;;12.41;42.26
33913;BME280;20200;52.084;5.224;2023-01-24T04:01:52;152005.0;;;12.86;41.4
33913;BME280;20200;52.084;5.224;2023-01-24T04:05:20;151971.0;;;12.72;41.32
33913;BME280;20200;52.084;5.224;2023-01-24T04:06:57;151986.0;;;12.78;41.03
33913;BME280;20200;52.084;5.224;2023-01-24T04:10:10;151942.0;;;12.61;41.48
33913;BME280;20200;52.084;5.224;2023-01-24T04:11:46;152075.0;;;13.13;40.85
33913;BME280;20200;52.084;5.224;2023-01-24T04:13:23;152084.0;;;13.17;40.69
33913;BME280;20200;52.084;5.224;2023-01-24T04:16:36;152094.0;;;13.21;40.69
33913;BME280;20200;52.084;5.224;2023-01-24T04:18:12;152003.0;;;12.85;41.2
33913;BME280;20200;52.084;5.224;2023-01-24T04:19:49;151953.0;;;12.65;41.72
33913;BME280;20200;52.084;5.224;2023-01-24T04:23:03;152042.0;;;13.0;41.05
33913;BME280;20200;52.084;5.224;2023-01-24T04:24:39;152008.0;;;12.87;40.81
33913;BME280;20200;52.084;5.224;2023-01-24T04:26:16;151913.0;;;12.49;41.9
33913;BME280;20200;52.084;5.224;2023-01-24T04:27:52;151984.0;;;12.77;41.18
33913;BME280;20200;52.084;5.224;2023-01-24T04:31:04;152015.0;;;12.9;40.94
33913;BME280;20200;52.084;5.224;2023-01-24T04:32:41;151983.0;;;12.77;41.25
33913;BME280;20200;52.084;5.224;2023-01-24T04:34:18;151995.0;;;12.82;41.09
33913;BME280;20200;52.084;5.224;2023-01-24T04:37:33;151948.0;;;12.63;41.62
33913;BME280;20200;52.084;5.224;2023-01-24T04:39:10;151955.0;;;12.66;41.5
33913;BME280;20200;52.084;5.224;2023-01-24T04:40:46;151796.0;;;12.02;42.53
33913;BME280;20200;52.084;5.224;2023-01-24T04:43:58;151793.0;;;12.01;42.62
33913;BME280;20200;52.084;5.224;2023-01-24T04:45:34;151703.0;;;11.65;43.08
33913;BME280;20200;52.084;5.224;2023-01-24T04:47:10;151732.0;;;11.77;42.91
33913;BME280;20200;52.084;5.224;2023-01-24T04:48:46;151865.0;;;12.3;42.04
33913;BME280;20200;52.084;5.224;2023-01-24T04:52:00;151796.0;;;12.03;42.41
33913;BME280;20200;52.084;5.224;2023-01-24T04:53:38;151636.0;;;11.39;43.46
33913;BME280;20200;52.084;5.224;2023-01-24T04:55:15;151808.0;;;12.07;42.47
33913;BME280;20200;52.084;5.224;2023-01-24T04:58:28;151819.0;;;12.12;42.14
33913;BME280;20200;52.084;5.224;2023-01-24T05:00:05;151863.0;;;12.29;41.96
33913;BME280;20200;52.084;5.224;2023-01-24T05:04:54;151785.0;;;11.98;42.55
33913;BME280;20200;52.084;5.224;2023-01-24T05:06:32;151866.0;;;12.3;41.86
33913;BME280;20200;52.084;5.224;2023-01-24T05:08:08;151955.0;;;12.66;41.26
33913;BME280;20200;52.084;5.224;2023-01-24T05:09:45;151891.0;;;12.4;41.61
33913;BME280;20200;52.084;5.224;2023-01-24T05:13:00;151920.0;;;12.52;41.19
33913;BME280;20200;52.084;5.224;2023-01-24T05:14:36;151900.0;;;12.44;41.58
33913;BME280;20200;52.084;5.224;2023-01-24T05:16:12;151820.0;;;12.12;41.95
33913;BME280;20200;52.084;5.224;2023-01-24T05:19:25;151838.0;;;12.19;42.3
33913;BME280;20200;52.084;5.224;2023-01-24T05:21:05;151854.0;;;12.26;42.21
33913;BME280;20200;52.084;5.224;2023-01-24T05:22:46;151901.0;;;12.44;41.65
33913;BME280;20200;52.084;5.224;2023-01-24T05:24:23;151915.0;;;12.5;41.44
33913;BME280;20200;52.084;5.224;2023-01-24T05:27:36;151956.0;;;12.66;41.11
33913;BME280;20200;52.084;5.224;2023-01-24T05:29:12;151872.0;;;12.33;41.78
33913;BME280;20200;52.084;5.224;2023-01-24T05:30:49;151874.0;;;12.34;41.83
33913;BME280;20200;52.084;5.224;2023-01-24T05:34:05;151769.0;;;11.92;42.39
33913;BME280;20200;52.084;5.224;2023-01-24T05:35:43;151694.0;;;11.62;43.11
33913;BME280;20200;52.084;5.224;2023-01-24T05:37:19;151743.0;;;11.81;42.85
33913;BME280;20200;52.084;5.224;2023-01-24T05:38:55;151680.0;;;11.56;43.02
33913;BME280;20200;52.084;5.224;2023-01-24T05:42:08;151789.0;;;12.0;42.64
33913;BME280;20200;52.084;5.224;2023-01-24T05:43:45;151688.0;;;11.59;43.13
33913;BME280;20200;52.084;5.224;2023-01-24T05:45:22;151688.0;;;11.59;43.34
33913;BME280;20200;52.084;5.224;2023-01-24T05:48:35;151736.0;;;11.78;42.8
33913;BME280;20200;52.084;5.224;2023-01-24T05:50:11;151715.0;;;11.7;42.98
33913;BME280;20200;52.084;5.224;2023-01-24T05:51:47;151786.0;;;11.99;42.24
33913;BME280;20200;52.084;5.224;2023-01-24T05:55:01;151932.0;;;12.57;41.37
33913;BME280;20200;52.084;5.224;2023-01-24T05:56:37;151896.0;;;12.42;41.75
33913;BME280;20200;52.084;5.224;2023-01-24T05:58:13;151605.0;;;11.27;43.66
33913;BME280;20200;52.084;5.224;2023-01-24T05:59:49;151764.0;;;11.9;42.62
33913;BME280;20200;52.084;5.224;2023-01-24T06:03:04;151680.0;;;11.56;43.29
33913;BME280;20200;52.084;5.224;2023-01-24T06:04:41;151714.0;;;11.7;43.14
33913;BME280;20200;52.084;5.224;2023-01-24T06:06:19;151579.0;;;11.16;43.6
33913;BME280;20200;52.084;5.224;2023-01-24T06:09:32;151651.0;;;11.45;43.47
33913;BME280;20200;52.084;5.224;2023-01-24T06:11:11;151701.0;;;11.65;43.14
33913;BME280;20200;52.084;5.224;2023-01-24T06:12:48;151570.0;;;11.12;44.08
33913;BME280;20200;52.084;5.224;2023-01-24T06:16:02;151642.0;;;11.41;43.96
33913;BME280;20200;52.084;5.224;2023-01-24T06:17:38;151662.0;;;11.49;43.64
33913;BME280;20200;52.084;5.224;2023-01-24T06:19:15;151703.0;;;11.65;43.04
33913;BME280;20200;52.084;5.224;2023-01-24T06:20:52;151700.0;;;11.64;42.98
33913;BME280;20200;52.084;5.224;2023-01-24T06:24:18;151643.0;;;11.42;43.48
33913;BME280;20200;52.084;5.224;2023-01-24T06:25:55;151656.0;;;11.47;43.65
33913;BME280;20200;52.084;5.224;2023-01-24T06:27:32;151658.0;;;11.47;43.52
33913;BME280;20200;52.084;5.224;2023-01-24T06:29:09;151568.0;;;11.11;43.97
33913;BME280;20200;52.084;5.224;2023-01-24T06:32:35;151524.0;;;10.94;44.41
33913;BME280;20200;52.084;5.224;2023-01-24T06:34:37;151602.0;;;11.25;43.79
33913;BME280;20200;52.084;5.224;2023-01-24T06:36:37;151644.0;;;11.42;43.42
33913;BME280;20200;52.084;5.224;2023-01-24T06:38:22;151624.0;;;11.34;43.58
33913;BME280;20200;52.084;5.224;2023-01-24T06:39:59;151604.0;;;11.26;44.12
33913;BME280;20200;52.084;5.224;2023-01-24T06:43:14;151734.0;;;11.78;43.1
33913;BME280;20200;52.084;5.224;2023-01-24T06:44:50;151657.0;;;11.47;43.65
33913;BME280;20200;52.084;5.224;2023-01-24T06:46:26;151800.0;;;12.04;42.38
33913;BME280;20200;52.084;5.224;2023-01-24T06:48:03;151780.0;;;11.96;42.29
33913;BME280;20200;52.084;5.224;2023-01-24T06:51:17;151660.0;;;11.48;43.1
33913;BME280;20200;52.084;5.224;2023-01-24T06:52:53;151762.0;;;11.89;42.88
33913;BME280;20200;52.084;5.224;2023-01-24T06:54:30;151750.0;;;11.84;43.11
33913;BME280;20200;52.084;5.224;2023-01-24T06:57:46;151719.0;;;11.72;42.97
33913;BME280;20200;52.084;5.224;2023-01-24T06:59:23;151604.0;;;11.26;44.08
33913;BME280;20200;52.084;5.224;2023-01-24T07:00:59;151624.0;;;11.34;43.58
33913;BME280;20200;52.084;5.224;2023-01-24T07:02:35;151527.0;;;10.95;44.39
33913;BME280;20200;52.084;5.224;2023-01-24T07:05:48;151639.0;;;11.4;43.89
33913;BME280;20200;52.084;5.224;2023-01-24T07:07:25;151624.0;;;11.34;43.6
33913;BME280;20200;52.084;5.224;2023-01-24T07:09:01;151662.0;;;11.49;43.59
33913;BME280;20200;52.084;5.224;2023-01-24T07:12:15;151604.0;;;11.26;44.43
33913;BME280;20200;52.084;5.224;2023-01-24T07:13:51;151562.0;;;11.09;44.3
33913;BME280;20200;52.084;5.224;2023-01-24T07:15:27;151561.0;;;11.09;44.5
33913;BME280;20200;52.084;5.224;2023-01-24T07:18:40;151636.0;;;11.39;43.81
33913;BME280;20200;52.084;5.224;2023-01-24T07:20:18;151607.0;;;11.27;43.98
33913;BME280;20200;52.084;5.224;2023-01-24T07:21:57;151729.0;;;11.76;43.1
33913;BME280;20200;52.084;5.224;2023-01-24T07:23:35;151697.0;;;11.63;43.49
33913;BME280;20200;52.084;5.224;2023-01-24T07:26:55;151672.0;;;11.53;43.55
33913;BME280;20200;52.084;5.224;2023-01-24T07:28:32;151637.0;;;11.39;44.17
33913;BME280;20200;52.084;5.224;2023-01-24T07:30:09;151765.0;;;11.9;43.04
33913;BME280;20200;52.084;5.224;2023-01-24T07:33:24;151796.0;;;12.03;42.93
33913;BME280;20200;52.084;5.224;2023-01-24T07:35:00;151759.0;;;11.88;43.12
33913;BME280;20200;52.084;5.224;2023-01-24T07:36:36;151779.0;;;11.95;43.13
33913;BME280;20200;52.084;5.224;2023-01-24T07:38:13;151812.0;;;12.09;42.84
33913;BME280;20200;52.084;5.224;2023-01-24T07:41:25;151770.0;;;11.92;43.27
33913;BME280;20200;52.084;5.224;2023-01-24T07:43:01;151830.0;;;12.16;42.73
33913;BME280;20200;52.084;5.224;2023-01-24T07:44:40;151798.0;;;12.03;43.01
33913;BME280;20200;52.084;5.224;2023-01-24T07:47:54;151843.0;;;12.21;42.52
33913;BME280;20200;52.084;5.224;2023-01-24T07:49:31;151853.0;;;12.25;42.54
33913;BME280;20200;52.084;5.224;2023-01-24T07:51:07;151787.0;;;11.99;42.78
33913;BME280;20200;52.084;5.224;2023-01-24T07:54:20;151729.0;;;11.76;43.54
33913;BME280;20200;52.084;5.224;2023-01-24T07:55:58;151616.0;;;11.31;44.23
33913;BME280;20200;52.084;5.224;2023-01-24T07:57:35;151757.0;;;11.87;43.16
33913;BME280;20200;52.084;5.224;2023-01-24T07:59:11;151742.0;;;11.81;43.27
33913;BME280;20200;52.084;5.224;2023-01-24T08:02:23;151787.0;;;11.99;42.83
33913;BME280;20200;52.084;5.224;2023-01-24T08:04:00;151694.0;;;11.62;43.67
33913;BME280;20200;52.084;5.224;2023-01-24T08:05:36;151604.0;;;11.26;44.46
33913;BME280;20200;52.084;5.224;2023-01-24T08:08:56;151620.0;;;11.32;44.04
33913;BME280;20200;52.084;5.224;2023-01-24T08:10:32;151712.0;;;11.69;43.45
33913;BME280;20200;52.084;5.224;2023-01-24T08:12:08;151751.0;;;11.85;43.45
33913;BME280;20200;52.084;5.224;2023-01-24T08:13:45;151768.0;;;11.91;43.34
33913;BME280;20200;52.084;5.224;2023-01-24T08:16:58;151816.0;;;12.1;42.97
33913;BME280;20200;52.084;5.224;2023-01-24T08:18:34;151754.0;;;11.86;43.43
33913;BME280;20200;52.084;5.224;2023-01-24T08:20:13;151781.0;;;11.96;43.17
33913;BME280;20200;52.084;5.224;2023-01-24T08:23:27;151804.0;;;12.06;42.9
33913;BME280;20200;52.084;5.224;2023-01-24T08:25:03;151839.0;;;12.19;42.69
33913;BME280;20200;52.084;5.224;2023-01-24T08:26:40;151775.0;;;11.94;43.34
33913;BME280;20200;52.084;5.224;2023-01-24T08:29:52;151804.0;;;12.06;43.05
33913;BME280;20200;52.084;5.224;2023-01-24T08:31:28;151708.0;;;11.67;43.39
33913;BME280;20200;52.084;5.224;2023-01-24T08:33:05;151667.0;;;11.51;43.36
33913;BME280;20200;52.084;5.224;2023-01-24T08:34:42;151763.0;;;11.89;43.3
33913;BME280;20200;52.084;5.224;2023-01-24T08:37:55;151729.0;;;11.76;43.76
33913;BME280;20200;52.084;5.224;2023-01-24T08:39:31;151759.0;;;11.88;43.25
33913;BME280;20200;52.084;5.224;2023-01-24T08:41:07;151662.0;;;11.49;43.57
33913;BME280;20200;52.084;5.224;2023-01-24T08:44:20;151716.0;;;11.71;43.71
33913;BME280;20200;52.084;5.224;2023-01-24T08:45:56;151809.0;;;12.07;42.65
33913;BME280;20200;52.084;5.224;2023-01-24T08:47:33;151879.0;;;12.36;42.29
33913;BME280;20200;52.084;5.224;2023-01-24T08:50:45;151858.0;;;12.28;42.45
33913;BME280;20200;52.084;5.224;2023-01-24T08:52:21;151756.0;;;11.86;43.17
33913;BME280;20200;52.084;5.224;2023-01-24T08:53:58;151715.0;;;11.7;43.49
33913;BME280;20200;52.084;5.224;2023-01-24T08:55:34;151714.0;;;11.7;43.47
33913;BME280;20200;52.084;5.224;2023-01-24T08:58:47;151794.0;;;12.02;42.83
33913;BME280;20200;52.084;5.224;2023-01-24T09:00:23;151768.0;;;11.91;43.22
33913;BME280;20200;52.084;5.224;2023-01-24T09:01:59;151749.0;;;11.84;43.44
33913;BME280;20200;52.084;5.224;2023-01-24T09:05:13;151782.0;;;11.97;42.97
33913;BME280;20200;52.084;5.224;2023-01-24T09:06:51;151826.0;;;12.14;42.65
33913;BME280;20200;52.084;5.224;2023-01-24T09:08:28;151807.0;;;12.07;42.54
33913;BME280;20200;52.084;5.224;2023-01-24T09:11:42;151733.0;;;11.77;43.36
33913;BME280;20200;52.084;5.224;2023-01-24T09:13:19;151690.0;;;11.6;43.63
33913;BME280;20200;52.084;5.224;2023-01-24T09:14:55;151750.0;;;11.84;42.77
33913;BME280;20200;52.084;5.224;2023-01-24T09:16:32;151758.0;;;11.87;42.7
33913;BME280;20200;52.084;5.224;2023-01-24T09:19:44;151716.0;;;11.71;43.26
33913;BME280;20200;52.084;5.224;2023-01-24T09:21:20;151804.0;;;12.06;42.39
33913;BME280;20200;52.084;5.224;2023-01-24T09:22:57;151713.0;;;11.69;43.01
33913;BME280;20200;52.084;5.224;2023-01-24T09:26:10;151542.0;;;11.01;44.31
33913;BME280;20200;52.084;5.224;2023-01-24T09:27:52;151671.0;;;11.52;43.51
33913;BME280;20200;52.084;5.224;2023-01-24T09:29:29;151630.0;;;11.36;43.7
33913;BME280;20200;52.084;5.224;2023-01-24T09:32:44;151609.0;;;11.28;44.21
33913;BME280;20200;52.084;5.224;2023-01-24T09:34:21;151657.0;;;11.47;43.76
33913;BME280;20200;52.084;5.224;2023-01-24T09:35:58;151687.0;;;11.59;43.65
33913;BME280;20200;52.084;5.224;2023-01-24T09:37:35;151647.0;;;11.43;43.69
33913;BME280;20200;52.084;5.224;2023-01-24T09:40:53;151524.0;;;10.94;44.62
33913;BME280;20200;52.084;5.224;2023-01-24T09:42:35;151576.0;;;11.15;44.4
33913;BME280;20200;52.084;5.224;2023-01-24T09:44:18;151690.0;;;11.6;43.63
33913;BME280;20200;52.084;5.224;2023-01-24T09:46:04;151711.0;;;11.69;43.63
33913;BME280;20200;52.084;5.224;2023-01-24T09:49:34;151652.0;;;11.45;44.2
33913;BME280;20200;52.084;5.224;2023-01-24T09:51:20;151717.0;;;11.71;43.5
33913;BME280;20200;52.084;5.224;2023-01-24T09:52:58;151698.0;;;11.63;43.67
33913;BME280;20200;52.084;5.224;2023-01-24T09:54:37;151576.0;;;11.15;44.27
33913;BME280;20200;52.084;5.224;2023-01-24T09:56:28;151763.0;;;11.89;43.2
33913;BME280;20200;52.084;5.224;2023-01-24T10:00:04;151725.0;;;11.74;43.63
33913;BME280;20200;52.084;5.224;2023-01-24T10:01:52;151734.0;;;11.78;43.45
33913;BME280;20200;52.084;5.224;2023-01-24T10:03:29;151739.0;;;11.8;43.48
33913;BME280;20200;52.084;5.224;2023-01-24T10:05:12;151751.0;;;11.85;43.37
33913;BME280;20200;52.084;5.224;2023-01-24T10:07:01;151864.0;;;12.3;42.63
33913;BME280;20200;52.084;5.224;2023-01-24T10:08:54;151803.0;;;12.05;43.41
33913;BME280;20200;52.084;5.224;2023-01-24T10:12:32;151839.0;;;12.19;43.19
33913;BME280;20200;52.084;5.224;2023-01-24T10:16:50;151767.0;;;11.91;43.97
33913;BME280;20200;52.084;5.224;2023-01-24T10:20:25;151670.0;;;11.52;44.52
33913;BME280;20200;52.084;5.224;2023-01-24T10:22:16;151699.0;;;11.64;44.25
33913;BME280;20200;52.084;5.224;2023-01-24T10:24:03;151647.0;;;11.43;44.32
33913;BME280;20200;52.084;5.224;2023-01-24T10:25:50;151598.0;;;11.24;44.48
33913;BME280;20200;52.084;5.224;2023-01-24T10:29:13;151542.0;;;11.01;45.24
33913;BME280;20200;52.084;5.224;2023-01-24T10:30:56;151606.0;;;11.27;44.73
33913;BME280;20200;52.084;5.224;2023-01-24T10:32:44;151611.0;;;11.29;44.67
33913;BME280;20200;52.084;5.224;2023-01-24T10:34:28;151538.0;;;11.0;45.03
33913;BME280;20200;52.084;5.224;2023-01-24T10:36:11;151555.0;;;11.06;45.47
33913;BME280;20200;52.084;5.224;2023-01-24T10:39:33;151559.0;;;11.08;45.0
33913;BME280;20200;52.084;5.224;2023-01-24T10:41:15;151535.0;;;10.99;45.68
33913;BME280;20200;52.084;5.224;2023-01-24T10:42:54;151644.0;;;11.42;44.57
33913;BME280;20200;52.084;5.224;2023-01-24T10:44:34;151597.0;;;11.23;44.91
33913;BME280;20200;52.084;5.224;2023-01-24T10:48:11;151526.0;;;10.95;45.17
33913;BME280;20200;52.084;5.224;2023-01-24T10:49:58;151655.0;;;11.46;44.71
33913;BME280;20200;52.084;5.224;2023-01-24T10:51:34;151702.0;;;11.65;44.39
33913;BME280;20200;52.084;5.224;2023-01-24T10:53:13;151713.0;;;11.69;44.31
33913;BME280;20200;52.084;5.224;2023-01-24T10:54:59;151704.0;;;11.66;44.26
33913;BME280;20200;52.084;5.224;2023-01-24T10:58:21;151708.0;;;11.67;44.14
33913;BME280;20200;52.084;5.224;2023-01-24T11:00:04;151750.0;;;11.84;43.63
33913;BME280;20200;52.084;5.224;2023-01-24T11:01:59;151763.0;;;11.89;43.92
33913;BME280;20200;52.084;5.224;2023-01-24T11:03:39;151807.0;;;12.07;43.19
33913;BME280;20200;52.084;5.224;2023-01-24T11:05:17;151649.0;;;11.44;44.27
33913;BME280;20200;52.084;5.224;2023-01-24T11:08:33;151706.0;;;11.66;44.23
33913;BME280;20200;52.084;5.224;2023-01-24T11:10:18;151597.0;;;11.23;44.79
33913;BME280;20200;52.084;5.224;2023-01-24T11:11:58;151701.0;;;11.64;44.1
33913;BME280;20200;52.084;5.224;2023-01-24T11:15:18;151600.0;;;11.24;44.49
33913;BME280;20200;52.084;5.224;2023-01-24T11:16:58;151646.0;;;11.43;44.51
33913;BME280;20200;52.084;5.224;2023-01-24T11:18:45;151678.0;;;11.55;44.16
33913;BME280;20200;52.084;5.224;2023-01-24T11:20:28;151727.0;;;11.75;43.62
33913;BME280;20200;52.084;5.224;2023-01-24T11:22:20;151740.0;;;11.8;43.65
33913;BME280;20200;52.084;5.224;2023-01-24T11:25:52;151747.0;;;11.83;42.98
33913;BME280;20200;52.084;5.224;2023-01-24T11:27:29;151861.0;;;12.28;42.45
33913;BME280;20200;52.084;5.224;2023-01-24T11:29:20;151906.0;;;12.46;42.22
33913;BME280;20200;52.084;5.224;2023-01-24T11:31:00;151768.0;;;11.91;43.19
33913;BME280;20200;52.084;5.224;2023-01-24T11:32:48;151849.0;;;12.24;42.46
33913;BME280;20200;52.084;5.224;2023-01-24T11:36:36;151871.0;;;12.32;42.68
33913;BME280;20200;52.084;5.224;2023-01-24T11:38:22;151802.0;;;12.05;43.37
33913;BME280;20200;52.084;5.224;2023-01-24T11:40:13;151771.0;;;11.92;43.3
33913;BME280;20200;52.084;5.224;2023-01-24T11:41:58;151865.0;;;12.3;43.41
33913;BME280;20200;52.084;5.224;2023-01-24T11:44:01;151794.0;;;12.02;43.54
33913;BME280;20200;52.084;5.224;2023-01-24T11:46:39;151839.0;;;12.2;43.46
33913;BME280;20200;52.084;5.224;2023-01-24T11:48:27;151732.0;;;11.77;43.81
33913;BME280;20200;52.084;5.224;2023-01-24T11:50:22;151790.0;;;12.0;43.43
33913;BME280;20200;52.084;5.224;2023-01-24T11:52:19;151789.0;;;12.0;43.34
33913;BME280;20200;52.084;5.224;2023-01-24T11:54:26;151865.0;;;12.3;42.86